createdAt,value
2018-10-12T00:00:35.821Z,19.12
2018-10-12T00:01:36.080Z,19.04
2018-10-12T00:02:36.299Z,18.99
2018-10-12T00:03:36.146Z,19.04
2018-10-12T00:04:35.855Z,18.98
2018-10-12T00:05:35.862Z,19.08
2018-10-12T00:06:36.130Z,18.9
2018-10-12T00:07:35.884Z,18.98
2018-10-12T00:08:35.901Z,18.93
2018-10-12T00:09:35.905Z,18.81
2018-10-12T00:10:35.916Z,18.9
2018-10-12T00:11:35.923Z,18.93
2018-10-12T00:12:36.186Z,18.8
2018-10-12T00:13:36.245Z,18.8
2018-10-12T00:14:35.701Z,18.88
2018-10-12T00:15:35.956Z,18.84
2018-10-12T00:16:35.962Z,18.9
2018-10-12T00:17:35.971Z,18.92
2018-10-12T00:18:35.726Z,18.96
2018-10-12T00:19:36.230Z,18.98
2018-10-12T00:20:36.236Z,18.98
2018-10-12T00:21:36.250Z,18.98
2018-10-12T00:22:36.007Z,18.96
2018-10-12T00:23:36.300Z,19.02
2018-10-12T00:24:36.021Z,18.98
2018-10-12T00:25:36.032Z,19.02
2018-10-12T00:26:36.296Z,18.96
2018-10-12T00:27:36.302Z,19.02
2018-10-12T00:28:36.108Z,19.09
2018-10-12T00:29:36.323Z,19.11
2018-10-12T00:30:36.326Z,19.09
2018-10-12T00:31:36.327Z,19.14
2018-10-12T00:32:36.342Z,19.09
2018-10-12T00:33:36.356Z,19.15
2018-10-12T00:34:35.848Z,19.14
2018-10-12T00:35:36.368Z,19.08
2018-10-12T00:36:36.370Z,18.98
2018-10-12T00:37:36.129Z,18.98
2018-10-12T00:38:36.395Z,19
2018-10-12T00:39:36.456Z,19.04
2018-10-12T00:40:36.152Z,18.99
2018-10-12T00:41:36.164Z,19.04
2018-10-12T00:42:36.188Z,18.95
2018-10-12T00:43:36.484Z,18.96
2018-10-12T00:44:36.184Z,18.96
2018-10-12T00:45:36.443Z,18.92
2018-10-12T00:46:36.198Z,18.99
2018-10-12T00:47:36.462Z,19
2018-10-12T00:48:36.476Z,19.02
2018-10-12T00:49:36.250Z,19.09
2018-10-12T00:50:36.493Z,19.14
2018-10-12T00:51:36.481Z,19.14
2018-10-12T00:52:36.246Z,19.19
2018-10-12T00:53:36.515Z,19.11
2018-10-12T00:54:36.266Z,19.11
2018-10-12T00:55:36.537Z,19.11
2018-10-12T00:56:36.038Z,19.15
2018-10-12T00:57:36.550Z,19.16
2018-10-12T00:58:36.606Z,19.14
2018-10-12T00:59:36.315Z,19.16
2018-10-12T01:00:36.316Z,19.22
2018-10-12T01:01:36.577Z,19.21
2018-10-12T01:02:36.617Z,19.15
2018-10-12T01:03:36.343Z,19.15
2018-10-12T01:04:36.608Z,19.14
2018-10-12T01:05:36.609Z,19.12
2018-10-12T01:06:36.727Z,19.18
2018-10-12T01:07:36.369Z,19.27
2018-10-12T01:08:36.623Z,19.27
2018-10-12T01:09:36.630Z,19.15
2018-10-12T01:10:36.647Z,19.15
2018-10-12T01:11:36.646Z,19.14
2018-10-12T01:12:36.660Z,19.16
2018-10-12T01:13:36.717Z,19.14
2018-10-12T01:14:36.418Z,19.19
2018-10-12T01:15:36.428Z,19.16
2018-10-12T01:16:36.684Z,19.15
2018-10-12T01:17:36.443Z,19.18
2018-10-12T01:18:36.762Z,19.02
2018-10-12T01:19:36.731Z,19.16
2018-10-12T01:20:36.728Z,19.15
2018-10-12T01:21:36.485Z,19.21
2018-10-12T01:22:36.752Z,19.18
2018-10-12T01:23:36.498Z,19.19
2018-10-12T01:24:36.784Z,19.14
2018-10-12T01:25:36.772Z,19.15
2018-10-12T01:26:36.784Z,19.18
2018-10-12T01:27:36.787Z,19.16
2018-10-12T01:28:36.834Z,19.16
2018-10-12T01:29:36.542Z,19.04
2018-10-12T01:30:36.800Z,19.14
2018-10-12T01:31:36.557Z,19.18
2018-10-12T01:32:36.823Z,19.08
2018-10-12T01:33:36.856Z,18.98
2018-10-12T01:34:36.835Z,18.98
2018-10-12T01:35:36.846Z,18.92
2018-10-12T01:36:36.599Z,18.98
2018-10-12T01:37:36.863Z,18.96
2018-10-12T01:38:36.669Z,18.86
2018-10-12T01:39:36.623Z,18.81
2018-10-12T01:40:36.917Z,18.89
2018-10-12T01:41:36.897Z,18.83
2018-10-12T01:42:36.657Z,18.81
2018-10-12T01:43:36.657Z,18.8
2018-10-12T01:44:36.929Z,18.73
2018-10-12T01:45:36.925Z,18.62
2018-10-12T01:46:36.944Z,18.65
2018-10-12T01:47:36.948Z,18.65
2018-10-12T01:48:37.055Z,18.62
2018-10-12T01:49:36.968Z,18.62
2018-10-12T01:50:36.968Z,18.66
2018-10-12T01:51:36.730Z,18.53
2018-10-12T01:52:36.731Z,18.53
2018-10-12T01:53:36.994Z,18.53
2018-10-12T01:54:37.005Z,18.38
2018-10-12T01:55:37.028Z,18.4
2018-10-12T01:56:36.769Z,18.34
2018-10-12T01:57:36.758Z,18.38
2018-10-12T01:58:36.516Z,18.31
2018-10-12T01:59:36.546Z,18.28
2018-10-12T02:00:37.035Z,18.33
2018-10-12T02:01:36.540Z,18.31
2018-10-12T02:02:37.063Z,18.35
2018-10-12T02:03:37.122Z,18.35
2018-10-12T02:04:36.831Z,18.41
2018-10-12T02:05:37.091Z,18.35
2018-10-12T02:06:36.838Z,18.43
2018-10-12T02:07:37.099Z,18.37
2018-10-12T02:08:37.112Z,18.43
2018-10-12T02:09:37.108Z,18.47
2018-10-12T02:10:37.123Z,18.4
2018-10-12T02:11:36.875Z,18.43
2018-10-12T02:12:37.192Z,18.49
2018-10-12T02:13:37.143Z,18.44
2018-10-12T02:14:37.147Z,18.59
2018-10-12T02:15:36.904Z,18.62
2018-10-12T02:16:37.176Z,18.63
2018-10-12T02:17:36.916Z,18.66
2018-10-12T02:18:37.225Z,18.65
2018-10-12T02:19:36.946Z,18.71
2018-10-12T02:20:37.196Z,18.7
2018-10-12T02:21:37.198Z,18.73
2018-10-12T02:22:37.217Z,18.68
2018-10-12T02:23:37.219Z,18.74
2018-10-12T02:24:36.967Z,18.73
2018-10-12T02:25:36.979Z,18.7
2018-10-12T02:26:37.254Z,18.8
2018-10-12T02:27:37.002Z,18.84
2018-10-12T02:28:37.259Z,18.8
2018-10-12T02:29:37.267Z,18.77
2018-10-12T02:30:37.291Z,18.75
2018-10-12T02:31:37.283Z,18.74
2018-10-12T02:32:37.043Z,18.74
2018-10-12T02:33:37.348Z,18.8
2018-10-12T02:34:37.314Z,18.8
2018-10-12T02:35:37.064Z,18.8
2018-10-12T02:36:37.085Z,18.75
2018-10-12T02:37:37.337Z,18.75
2018-10-12T02:38:37.345Z,18.71
2018-10-12T02:39:37.403Z,18.71
2018-10-12T02:40:37.377Z,18.68
2018-10-12T02:41:37.114Z,18.71
2018-10-12T02:42:37.373Z,18.71
2018-10-12T02:43:36.880Z,18.74
2018-10-12T02:44:37.387Z,18.7
2018-10-12T02:45:37.146Z,18.66
2018-10-12T02:46:37.410Z,18.62
2018-10-12T02:47:37.163Z,18.6
2018-10-12T02:48:37.484Z,18.63
2018-10-12T02:49:37.433Z,18.56
2018-10-12T02:50:37.434Z,18.55
2018-10-12T02:51:37.448Z,18.62
2018-10-12T02:52:37.458Z,18.66
2018-10-12T02:53:37.463Z,18.65
2018-10-12T02:54:37.469Z,18.59
2018-10-12T02:55:37.476Z,18.6
2018-10-12T02:56:37.488Z,18.62
2018-10-12T02:57:37.491Z,18.52
2018-10-12T02:58:37.504Z,18.45
2018-10-12T02:59:37.507Z,18.47
2018-10-12T03:00:37.525Z,18.5
2018-10-12T03:01:37.523Z,18.45
2018-10-12T03:02:37.530Z,18.53
2018-10-12T03:03:37.584Z,18.56
2018-10-12T03:04:37.541Z,18.49
2018-10-12T03:05:37.299Z,18.53
2018-10-12T03:06:37.557Z,18.55
2018-10-12T03:07:37.309Z,18.56
2018-10-12T03:08:37.323Z,18.56
2018-10-12T03:09:37.607Z,18.53
2018-10-12T03:10:37.415Z,18.53
2018-10-12T03:11:37.604Z,18.52
2018-10-12T03:12:37.600Z,18.44
2018-10-12T03:13:37.619Z,18.52
2018-10-12T03:14:37.119Z,18.53
2018-10-12T03:15:37.379Z,18.6
2018-10-12T03:16:37.633Z,18.62
2018-10-12T03:17:37.390Z,18.6
2018-10-12T03:18:37.444Z,18.68
2018-10-12T03:19:37.425Z,18.71
2018-10-12T03:20:37.679Z,18.75
2018-10-12T03:21:37.673Z,18.75
2018-10-12T03:22:37.678Z,18.75
2018-10-12T03:23:37.432Z,18.68
2018-10-12T03:24:37.700Z,18.68
2018-10-12T03:25:37.705Z,18.62
2018-10-12T03:26:37.712Z,18.65
2018-10-12T03:27:37.716Z,18.65
2018-10-12T03:28:37.733Z,18.75
2018-10-12T03:29:37.488Z,18.7
2018-10-12T03:30:37.512Z,18.77
2018-10-12T03:31:37.755Z,18.73
2018-10-12T03:32:37.762Z,18.7
2018-10-12T03:33:37.558Z,18.59
2018-10-12T03:34:37.511Z,18.7
2018-10-12T03:35:37.778Z,18.73
2018-10-12T03:36:37.782Z,18.68
2018-10-12T03:37:37.791Z,18.65
2018-10-12T03:38:37.795Z,18.56
2018-10-12T03:39:37.300Z,18.65
2018-10-12T03:40:37.856Z,18.56
2018-10-12T03:41:37.574Z,18.5
2018-10-12T03:42:37.610Z,18.5
2018-10-12T03:43:37.642Z,18.59
2018-10-12T03:44:37.616Z,18.45
2018-10-12T03:45:37.850Z,18.52
2018-10-12T03:46:37.859Z,18.5
2018-10-12T03:47:37.867Z,18.47
2018-10-12T03:48:37.873Z,18.56
2018-10-12T03:49:37.651Z,18.58
2018-10-12T03:50:37.941Z,18.52
2018-10-12T03:51:37.898Z,18.44
2018-10-12T03:52:37.666Z,18.44
2018-10-12T03:53:37.423Z,18.33
2018-10-12T03:54:37.678Z,18.4
2018-10-12T03:55:37.935Z,18.34
2018-10-12T03:56:37.950Z,18.33
2018-10-12T03:57:37.701Z,18.2
2018-10-12T03:58:38.010Z,18.25
2018-10-12T03:59:37.968Z,18.28
2018-10-12T04:00:37.977Z,18.18
2018-10-12T04:01:37.723Z,18.13
2018-10-12T04:02:37.786Z,18.05
2018-10-12T04:03:37.991Z,17.98
2018-10-12T04:04:37.995Z,18.04
2018-10-12T04:05:37.766Z,18.05
2018-10-12T04:06:37.783Z,17.94
2018-10-12T04:07:38.049Z,17.98
2018-10-12T04:08:38.025Z,17.92
2018-10-12T04:09:38.032Z,17.92
2018-10-12T04:10:37.790Z,17.97
2018-10-12T04:11:37.797Z,17.95
2018-10-12T04:12:38.399Z,17.85
2018-10-12T04:13:38.181Z,17.83
2018-10-12T04:14:38.086Z,17.74
2018-10-12T04:15:38.091Z,17.72
2018-10-12T04:16:37.840Z,17.78
2018-10-12T04:17:38.104Z,17.68
2018-10-12T04:18:38.106Z,17.71
2018-10-12T04:19:37.868Z,17.72
2018-10-12T04:20:37.891Z,17.74
2018-10-12T04:21:37.874Z,17.72
2018-10-12T04:22:38.151Z,17.76
2018-10-12T04:23:37.892Z,17.7
2018-10-12T04:24:38.153Z,17.72
2018-10-12T04:25:38.170Z,17.7
2018-10-12T04:26:37.917Z,17.57
2018-10-12T04:27:38.175Z,17.6
2018-10-12T04:28:37.979Z,17.54
2018-10-12T04:29:38.195Z,17.59
2018-10-12T04:30:37.950Z,17.59
2018-10-12T04:31:38.228Z,17.56
2018-10-12T04:32:38.207Z,17.48
2018-10-12T04:33:38.255Z,17.54
2018-10-12T04:34:38.225Z,17.48
2018-10-12T04:35:38.254Z,17.51
2018-10-12T04:36:38.243Z,17.49
2018-10-12T04:37:38.248Z,17.52
2018-10-12T04:38:38.373Z,17.51
2018-10-12T04:39:38.260Z,17.52
2018-10-12T04:40:38.278Z,17.48
2018-10-12T04:41:38.275Z,17.48
2018-10-12T04:42:38.348Z,17.42
2018-10-12T04:43:38.347Z,17.44
2018-10-12T04:44:38.304Z,17.41
2018-10-12T04:45:38.057Z,17.39
2018-10-12T04:46:38.323Z,17.45
2018-10-12T04:47:38.332Z,17.33
2018-10-12T04:48:38.343Z,17.41
2018-10-12T04:49:38.355Z,17.41
2018-10-12T04:50:38.343Z,17.38
2018-10-12T04:51:38.102Z,17.31
2018-10-12T04:52:38.104Z,17.38
2018-10-12T04:53:38.228Z,17.33
2018-10-12T04:54:38.370Z,17.34
2018-10-12T04:55:38.128Z,17.3
2018-10-12T04:56:38.397Z,17.26
2018-10-12T04:57:38.390Z,17.23
2018-10-12T04:58:38.193Z,17.16
2018-10-12T04:59:38.404Z,17.2
2018-10-12T05:00:38.488Z,17.14
2018-10-12T05:01:38.421Z,17.15
2018-10-12T05:02:38.433Z,17.01
2018-10-12T05:03:38.437Z,17.04
2018-10-12T05:04:38.447Z,17.08
2018-10-12T05:05:38.447Z,17.14
2018-10-12T05:06:38.457Z,17.22
2018-10-12T05:07:38.713Z,17.08
2018-10-12T05:08:38.486Z,17.04
2018-10-12T05:09:38.481Z,17.06
2018-10-12T05:10:38.479Z,16.93
2018-10-12T05:11:38.237Z,16.96
2018-10-12T05:12:38.493Z,17.01
2018-10-12T05:13:38.572Z,17.02
2018-10-12T05:14:38.260Z,16.9
2018-10-12T05:15:38.290Z,16.89
2018-10-12T05:16:38.276Z,16.79
2018-10-12T05:17:38.531Z,16.83
2018-10-12T05:18:38.416Z,16.78
2018-10-12T05:19:38.295Z,16.86
2018-10-12T05:20:38.556Z,16.84
2018-10-12T05:21:38.565Z,16.83
2018-10-12T05:22:38.578Z,16.76
2018-10-12T05:23:38.372Z,16.71
2018-10-12T05:24:38.327Z,16.68
2018-10-12T05:25:38.591Z,16.75
2018-10-12T05:26:38.343Z,16.72
2018-10-12T05:27:38.597Z,16.66
2018-10-12T05:28:38.714Z,16.66
2018-10-12T05:29:38.617Z,16.74
2018-10-12T05:30:38.622Z,16.76
2018-10-12T05:31:38.370Z,16.72
2018-10-12T05:32:38.376Z,16.84
2018-10-12T05:33:38.741Z,16.75
2018-10-12T05:34:38.392Z,16.74
2018-10-12T05:35:38.652Z,16.72
2018-10-12T05:36:38.658Z,16.72
2018-10-12T05:37:38.660Z,16.76
2018-10-12T05:38:39.467Z,16.76
2018-10-12T05:39:38.422Z,16.79
2018-10-12T05:40:38.431Z,16.79
2018-10-12T05:41:38.435Z,16.79
2018-10-12T05:42:38.473Z,16.74
2018-10-12T05:43:38.687Z,16.81
2018-10-12T05:44:38.719Z,16.83
2018-10-12T05:45:38.724Z,16.76
2018-10-12T05:46:38.734Z,16.78
2018-10-12T05:47:38.741Z,16.79
2018-10-12T05:48:38.832Z,16.76
2018-10-12T05:49:38.754Z,16.79
2018-10-12T05:50:38.501Z,16.81
2018-10-12T05:51:38.772Z,16.9
2018-10-12T05:52:38.260Z,16.91
2018-10-12T05:53:38.828Z,16.86
2018-10-12T05:54:38.788Z,16.9
2018-10-12T05:55:38.902Z,16.87
2018-10-12T05:56:38.288Z,16.76
2018-10-12T05:57:38.299Z,16.81
2018-10-12T05:58:38.558Z,16.91
2018-10-12T05:59:38.815Z,16.86
2018-10-12T06:00:38.820Z,16.91
2018-10-12T06:01:38.577Z,16.89
2018-10-12T06:02:38.860Z,16.81
2018-10-12T06:03:38.842Z,16.86
2018-10-12T06:04:38.905Z,16.81
2018-10-12T06:05:38.352Z,16.86
2018-10-12T06:06:38.864Z,16.91
2018-10-12T06:07:38.618Z,16.89
2018-10-12T06:08:38.622Z,16.83
2018-10-12T06:09:38.768Z,16.79
2018-10-12T06:10:38.662Z,16.9
2018-10-12T06:11:38.645Z,16.9
2018-10-12T06:12:38.905Z,16.87
2018-10-12T06:13:38.912Z,16.75
2018-10-12T06:14:38.914Z,16.84
2018-10-12T06:15:39.413Z,16.87
2018-10-12T06:16:38.930Z,16.91
2018-10-12T06:17:38.945Z,16.84
2018-10-12T06:18:38.692Z,16.91
2018-10-12T06:19:39.011Z,16.79
2018-10-12T06:20:38.967Z,16.86
2018-10-12T06:21:39.236Z,16.9
2018-10-12T06:22:38.961Z,16.96
2018-10-12T06:23:38.993Z,16.99
2018-10-12T06:24:38.980Z,16.96
2018-10-12T06:25:38.997Z,17.02
2018-10-12T06:26:39.158Z,17.02
2018-10-12T06:27:39.001Z,17.06
2018-10-12T06:28:39.017Z,17.05
2018-10-12T06:29:38.768Z,17.08
2018-10-12T06:30:39.043Z,17.06
2018-10-12T06:31:39.038Z,17.14
2018-10-12T06:32:39.046Z,17.22
2018-10-12T06:33:39.046Z,17.23
2018-10-12T06:34:39.118Z,17.31
2018-10-12T06:35:39.064Z,17.39
2018-10-12T06:36:39.065Z,17.38
2018-10-12T06:37:38.819Z,17.27
2018-10-12T06:38:39.116Z,17.22
2018-10-12T06:39:39.091Z,17.31
2018-10-12T06:40:39.096Z,17.45
2018-10-12T06:41:39.647Z,17.33
2018-10-12T06:42:39.105Z,17.45
2018-10-12T06:43:39.120Z,17.39
2018-10-12T06:44:38.873Z,17.34
2018-10-12T06:45:39.128Z,17.39
2018-10-12T06:46:38.680Z,17.48
2018-10-12T06:47:39.149Z,17.49
2018-10-12T06:48:39.163Z,17.57
2018-10-12T06:49:38.958Z,17.59
2018-10-12T06:50:39.168Z,17.7
2018-10-12T06:51:39.170Z,17.76
2018-10-12T06:52:38.929Z,17.72
2018-10-12T06:53:38.931Z,17.74
2018-10-12T06:54:38.943Z,17.8
2018-10-12T06:55:39.197Z,17.87
2018-10-12T06:56:38.955Z,17.89
2018-10-12T06:57:39.212Z,17.9
2018-10-12T06:58:39.238Z,18
2018-10-12T06:59:39.229Z,17.98
2018-10-12T07:00:39.239Z,18.01
2018-10-12T07:01:38.996Z,18.04
2018-10-12T07:02:39.253Z,18.15
2018-10-12T07:03:39.003Z,18.18
2018-10-12T07:04:39.317Z,18.26
2018-10-12T07:05:39.515Z,18.31
2018-10-12T07:06:39.271Z,18.26
2018-10-12T07:07:39.323Z,18.33
2018-10-12T07:08:39.036Z,18.37
2018-10-12T07:09:39.300Z,18.26
2018-10-12T07:10:39.063Z,18.37
2018-10-12T07:11:38.808Z,18.38
2018-10-12T07:12:39.323Z,18.56
2018-10-12T07:13:39.411Z,18.49
2018-10-12T07:14:40.411Z,18.45
2018-10-12T07:15:39.086Z,18.56
2018-10-12T07:16:39.346Z,18.6
2018-10-12T07:17:39.099Z,18.62
2018-10-12T07:18:39.117Z,18.65
2018-10-12T07:19:38.969Z,18.71
2018-10-12T07:20:39.386Z,18.75
2018-10-12T07:21:39.393Z,18.81
2018-10-12T07:22:39.153Z,18.89
2018-10-12T07:23:39.155Z,18.88
2018-10-12T07:24:39.162Z,18.9
2018-10-12T07:25:39.440Z,18.89
2018-10-12T07:26:39.183Z,18.93
2018-10-12T07:27:39.446Z,19.02
2018-10-12T07:28:39.442Z,19.09
2018-10-12T07:29:39.518Z,19.09
2018-10-12T07:30:39.215Z,19.15
2018-10-12T07:31:39.474Z,19.16
2018-10-12T07:32:39.501Z,19.21
2018-10-12T07:33:39.487Z,19.16
2018-10-12T07:34:39.546Z,19.34
2018-10-12T07:35:39.508Z,19.41
2018-10-12T07:36:39.259Z,19.47
2018-10-12T07:37:39.896Z,19.54
2018-10-12T07:38:39.532Z,19.52
2018-10-12T07:39:39.285Z,19.59
2018-10-12T07:40:39.579Z,19.69
2018-10-12T07:41:39.566Z,19.7
2018-10-12T07:42:40.103Z,19.81
2018-10-12T07:43:39.574Z,19.82
2018-10-12T07:44:39.337Z,19.88
2018-10-12T07:45:39.590Z,19.77
2018-10-12T07:46:39.328Z,19.85
2018-10-12T07:47:39.336Z,19.94
2018-10-12T07:48:39.595Z,19.89
2018-10-12T07:49:39.653Z,19.94
2018-10-12T07:50:39.366Z,20.02
2018-10-12T07:51:39.648Z,20.11
2018-10-12T07:52:39.657Z,20.07
2018-10-12T07:53:39.665Z,20.26
2018-10-12T07:54:39.668Z,20.32
2018-10-12T07:55:39.682Z,20.25
2018-10-12T07:56:39.431Z,20.32
2018-10-12T07:57:39.698Z,20.26
2018-10-12T07:58:39.469Z,20.25
2018-10-12T07:59:39.459Z,20.31
2018-10-12T08:00:40.142Z,20.34
2018-10-12T08:01:39.726Z,20.32
2018-10-12T08:02:39.487Z,20.48
2018-10-12T08:03:39.488Z,20.51
2018-10-12T08:04:39.905Z,20.47
2018-10-12T08:05:39.513Z,20.48
2018-10-12T08:06:39.937Z,20.58
2018-10-12T08:07:39.774Z,20.62
2018-10-12T08:08:39.786Z,20.67
2018-10-12T08:09:40.012Z,20.67
2018-10-12T08:10:39.554Z,20.69
2018-10-12T08:11:39.566Z,20.78
2018-10-12T08:12:39.826Z,20.78
2018-10-12T08:13:40.048Z,20.81
2018-10-12T08:14:39.900Z,20.8
2018-10-12T08:15:39.852Z,20.85
2018-10-12T08:16:39.615Z,20.85
2018-10-12T08:17:39.875Z,20.95
2018-10-12T08:18:39.887Z,20.95
2018-10-12T08:19:39.882Z,21.02
2018-10-12T08:20:39.901Z,21.03
2018-10-12T08:21:39.905Z,21.03
2018-10-12T08:22:39.915Z,21.05
2018-10-12T08:23:39.926Z,21.17
2018-10-12T08:24:39.938Z,21.17
2018-10-12T08:25:39.948Z,21.22
2018-10-12T08:26:39.957Z,21.03
2018-10-12T08:27:39.452Z,21.15
2018-10-12T08:28:39.714Z,21.17
2018-10-12T08:29:40.037Z,21.21
2018-10-12T08:30:39.734Z,21.3
2018-10-12T08:31:40.299Z,21.43
2018-10-12T08:32:40.000Z,21.45
2018-10-12T08:33:40.090Z,21.52
2018-10-12T08:34:40.029Z,21.58
2018-10-12T08:35:39.782Z,21.69
2018-10-12T08:36:40.426Z,21.6
2018-10-12T08:37:40.057Z,21.57
2018-10-12T08:38:40.061Z,21.5
2018-10-12T08:39:40.123Z,21.55
2018-10-12T08:40:40.079Z,21.69
2018-10-12T08:41:39.925Z,21.83
2018-10-12T08:42:40.102Z,21.75
2018-10-12T08:43:40.115Z,21.79
2018-10-12T08:44:40.121Z,21.95
2018-10-12T08:45:39.878Z,21.98
2018-10-12T08:46:40.137Z,21.98
2018-10-12T08:47:40.149Z,22.07
2018-10-12T08:48:40.157Z,22.06
2018-10-12T08:49:39.913Z,22.1
2018-10-12T08:50:39.924Z,22.07
2018-10-12T08:51:40.186Z,22.14
2018-10-12T08:52:39.942Z,22.17
2018-10-12T08:53:40.213Z,22.25
2018-10-12T08:54:41.010Z,22.15
2018-10-12T08:55:40.274Z,22.2
2018-10-12T08:56:39.725Z,22.26
2018-10-12T08:57:40.239Z,22.35
2018-10-12T08:58:40.254Z,22.39
2018-10-12T08:59:40.263Z,22.44
2018-10-12T09:00:40.270Z,22.44
2018-10-12T09:01:40.485Z,22.5
2018-10-12T09:02:40.284Z,22.48
2018-10-12T09:03:40.300Z,22.62
2018-10-12T09:04:40.361Z,22.63
2018-10-12T09:05:40.338Z,22.69
2018-10-12T09:06:40.335Z,22.85
2018-10-12T09:07:40.089Z,22.94
2018-10-12T09:08:40.353Z,22.98
2018-10-12T09:09:40.456Z,23.06
2018-10-12T09:10:40.120Z,23.06
2018-10-12T09:11:40.384Z,23.08
2018-10-12T09:12:40.136Z,23.12
2018-10-12T09:13:40.400Z,23.05
2018-10-12T09:14:40.407Z,23.02
2018-10-12T09:15:40.178Z,23.02
2018-10-12T09:16:40.424Z,23.06
2018-10-12T09:17:40.433Z,23.09
2018-10-12T09:18:40.441Z,23.03
2018-10-12T09:19:40.504Z,22.99
2018-10-12T09:20:40.682Z,23
2018-10-12T09:21:40.544Z,23.02
2018-10-12T09:22:40.234Z,23.18
2018-10-12T09:23:39.990Z,23.31
2018-10-12T09:24:40.261Z,23.39
2018-10-12T09:25:40.527Z,23.4
2018-10-12T09:26:40.533Z,23.55
2018-10-12T09:27:40.291Z,23.51
2018-10-12T09:28:40.309Z,23.46
2018-10-12T09:29:40.621Z,23.34
2018-10-12T09:30:40.321Z,23.24
2018-10-12T09:31:40.595Z,23.34
2018-10-12T09:32:40.597Z,23.24
2018-10-12T09:33:40.609Z,23.34
2018-10-12T09:34:40.422Z,23.32
2018-10-12T09:35:40.375Z,23.24
2018-10-12T09:36:41.176Z,23.37
2018-10-12T09:37:40.654Z,23.48
2018-10-12T09:38:40.684Z,23.59
2018-10-12T09:39:40.719Z,23.74
2018-10-12T09:40:40.748Z,23.86
2018-10-12T09:41:40.440Z,23.81
2018-10-12T09:42:40.704Z,23.91
2018-10-12T09:43:40.718Z,23.84
2018-10-12T09:44:41.472Z,23.86
2018-10-12T09:45:40.754Z,23.86
2018-10-12T09:46:40.737Z,23.87
2018-10-12T09:47:40.746Z,23.95
2018-10-12T09:48:40.761Z,24.11
2018-10-12T09:49:40.814Z,23.99
2018-10-12T09:50:40.536Z,23.86
2018-10-12T09:51:40.799Z,23.86
2018-10-12T09:52:40.559Z,23.8
2018-10-12T09:53:40.818Z,23.8
2018-10-12T09:54:40.832Z,23.81
2018-10-12T09:55:40.845Z,23.81
2018-10-12T09:56:40.853Z,23.84
2018-10-12T09:57:40.865Z,23.91
2018-10-12T09:58:40.880Z,23.99
2018-10-12T09:59:40.632Z,23.98
2018-10-12T10:00:40.641Z,23.99
2018-10-12T10:01:40.978Z,24.17
2018-10-12T10:02:40.923Z,24.17
2018-10-12T10:03:40.931Z,24.29
2018-10-12T10:04:40.992Z,24.32
2018-10-12T10:05:40.944Z,24.5
2018-10-12T10:06:40.954Z,24.54
2018-10-12T10:07:40.988Z,24.7
2018-10-12T10:08:41.044Z,24.95
2018-10-12T10:09:40.728Z,25.28
2018-10-12T10:10:40.994Z,25.83
2018-10-12T10:11:40.753Z,26.06
2018-10-12T10:12:40.764Z,26.33
2018-10-12T10:13:40.856Z,26.6
2018-10-12T10:14:41.050Z,26.97
2018-10-12T10:15:41.314Z,27.39
2018-10-12T10:16:40.821Z,27.45
2018-10-12T10:17:40.841Z,27.63
2018-10-12T10:18:41.104Z,27.86
2018-10-12T10:19:40.977Z,27.65
2018-10-12T10:20:40.873Z,27.73
2018-10-12T10:21:41.139Z,27.86
2018-10-12T10:22:41.415Z,28.11
2018-10-12T10:23:40.918Z,28.26
2018-10-12T10:24:40.930Z,28.7
2018-10-12T10:25:40.942Z,28.98
2018-10-12T10:26:41.191Z,29.14
2018-10-12T10:27:41.205Z,29.1
2018-10-12T10:28:41.222Z,29.1
2018-10-12T10:29:40.986Z,29.2
2018-10-12T10:30:41.267Z,29.27
2018-10-12T10:31:41.271Z,29.35
2018-10-12T10:32:41.039Z,29.56
2018-10-12T10:33:41.060Z,29.91
2018-10-12T10:34:40.855Z,30.35
2018-10-12T10:35:41.108Z,30.47
2018-10-12T10:36:41.367Z,30.69
2018-10-12T10:37:41.395Z,30.91
2018-10-12T10:38:41.412Z,31
2018-10-12T10:39:41.427Z,31.12
2018-10-12T10:40:41.445Z,31.51
2018-10-12T10:41:41.473Z,31.92
2018-10-12T10:42:41.226Z,32.33
2018-10-12T10:43:41.500Z,32.27
2018-10-12T10:44:42.311Z,31.61
2018-10-12T10:45:41.538Z,31.03
2018-10-12T10:46:41.544Z,30.97
2018-10-12T10:47:41.568Z,31.06
2018-10-12T10:48:41.583Z,31.17
2018-10-12T10:49:41.648Z,31.31
2018-10-12T10:50:41.385Z,31.52
2018-10-12T10:51:41.384Z,32.01
2018-10-12T10:52:41.660Z,32.34
2018-10-12T10:53:42.023Z,32.3
2018-10-12T10:54:41.693Z,32.3
2018-10-12T10:55:41.714Z,32.49
2018-10-12T10:56:41.488Z,32.58
2018-10-12T10:57:41.513Z,32.71
2018-10-12T10:58:41.787Z,32.85
2018-10-12T10:59:41.864Z,33.17
2018-10-12T11:00:41.579Z,33.42
2018-10-12T11:01:41.843Z,33.5
2018-10-12T11:02:41.871Z,33.52
2018-10-12T11:03:41.884Z,33.8
2018-10-12T11:04:41.962Z,34.06
2018-10-12T11:05:41.933Z,34.29
2018-10-12T11:06:41.954Z,34.5
2018-10-12T11:07:41.984Z,34.61
2018-10-12T11:08:41.998Z,34.77
2018-10-12T11:09:43.024Z,35.1
2018-10-12T11:10:41.796Z,35.36
2018-10-12T11:11:42.065Z,35.44
2018-10-12T11:12:42.356Z,35.46
2018-10-12T11:13:41.860Z,35.6
2018-10-12T11:14:41.944Z,35.53
2018-10-12T11:15:41.900Z,35.6
2018-10-12T11:16:42.165Z,35.85
2018-10-12T11:17:41.932Z,36.14
2018-10-12T11:18:42.210Z,36.51
2018-10-12T11:19:42.524Z,36.55
2018-10-12T11:20:42.256Z,36.47
2018-10-12T11:21:42.024Z,36.18
2018-10-12T11:22:42.296Z,36.18
2018-10-12T11:23:42.326Z,36.35
2018-10-12T11:24:42.614Z,36.65
2018-10-12T11:25:42.368Z,36.88
2018-10-12T11:26:42.578Z,36.96
2018-10-12T11:27:42.424Z,36.83
2018-10-12T11:28:42.198Z,36.88
2018-10-12T11:29:42.517Z,37.01
2018-10-12T11:30:42.495Z,36.98
2018-10-12T11:31:42.255Z,37.14
2018-10-12T11:32:42.762Z,37.33
2018-10-12T11:33:42.312Z,37.49
2018-10-12T11:34:43.638Z,37.53
2018-10-12T11:35:42.615Z,37.67
2018-10-12T11:36:42.398Z,37.8
2018-10-12T11:37:42.658Z,38.05
2018-10-12T11:38:42.679Z,38.08
2018-10-12T11:39:42.706Z,38.26
2018-10-12T11:40:42.727Z,38.28
2018-10-12T11:41:42.511Z,38.34
2018-10-12T11:42:42.781Z,38.48
2018-10-12T11:43:42.808Z,38.46
2018-10-12T11:44:42.923Z,38.42
2018-10-12T11:45:42.853Z,38.09
2018-10-12T11:46:42.885Z,38.09
2018-10-12T11:47:42.892Z,38.27
2018-10-12T11:48:42.914Z,38.3
2018-10-12T11:49:42.691Z,38.76
2018-10-12T11:50:42.970Z,38.92
2018-10-12T11:51:42.743Z,39.33
2018-10-12T11:52:42.772Z,39.78
2018-10-12T11:53:42.796Z,39.85
2018-10-12T11:54:42.826Z,39.93
2018-10-12T11:55:43.097Z,40
2018-10-12T11:56:43.123Z,40.16
2018-10-12T11:57:42.894Z,40
2018-10-12T11:58:43.167Z,40.08
2018-10-12T11:59:43.253Z,39.89
2018-10-12T12:00:43.299Z,39.9
2018-10-12T12:01:43.253Z,39.55
2018-10-12T12:02:43.268Z,39.52
2018-10-12T12:03:43.296Z,39.86
2018-10-12T12:04:43.370Z,39.94
2018-10-12T12:05:43.343Z,39.99
2018-10-12T12:06:43.371Z,39.96
2018-10-12T12:07:42.893Z,39.77
2018-10-12T12:08:43.425Z,39.74
2018-10-12T12:09:43.451Z,40.08
2018-10-12T12:10:43.488Z,40.54
2018-10-12T12:11:43.506Z,41.06
2018-10-12T12:12:43.534Z,41.31
2018-10-12T12:13:43.860Z,41.82
2018-10-12T12:14:43.328Z,42.01
2018-10-12T12:15:43.620Z,42.17
2018-10-12T12:16:43.385Z,41.95
2018-10-12T12:17:43.158Z,42.04
2018-10-12T12:18:43.692Z,41.63
2018-10-12T12:19:43.652Z,41.68
2018-10-12T12:20:43.731Z,41.83
2018-10-12T12:21:43.757Z,41.9
2018-10-12T12:22:43.785Z,41.88
2018-10-12T12:23:43.813Z,41.85
2018-10-12T12:24:43.841Z,41.52
2018-10-12T12:25:43.864Z,41.12
2018-10-12T12:26:43.906Z,41
2018-10-12T12:27:43.414Z,41.22
2018-10-12T12:28:43.945Z,41.44
2018-10-12T12:29:43.732Z,41.87
2018-10-12T12:30:43.748Z,41.82
2018-10-12T12:31:43.525Z,41.88
2018-10-12T12:32:43.551Z,41.94
2018-10-12T12:33:44.083Z,42.32
2018-10-12T12:34:44.730Z,42.55
2018-10-12T12:35:44.956Z,42.86
2018-10-12T12:36:44.167Z,42.95
2018-10-12T12:37:43.944Z,42.73
2018-10-12T12:38:43.965Z,42.69
2018-10-12T12:39:44.046Z,42.72
2018-10-12T12:40:43.763Z,42.48
2018-10-12T12:41:44.540Z,42.38
2018-10-12T12:42:44.072Z,42.54
2018-10-12T12:43:44.362Z,42.79
2018-10-12T12:44:44.383Z,42.88
2018-10-12T12:45:44.150Z,43.13
2018-10-12T12:46:44.429Z,43.06
2018-10-12T12:47:44.874Z,42.92
2018-10-12T12:48:46.026Z,42.88
2018-10-12T12:49:44.005Z,42.94
2018-10-12T12:50:44.283Z,43.19
2018-10-12T12:51:44.575Z,43.43
2018-10-12T12:52:44.602Z,43.5
2018-10-12T12:53:44.747Z,43.55
2018-10-12T12:54:44.545Z,43.57
2018-10-12T12:55:44.688Z,43.61